createdAt,value
2023-03-25T00:00:18.312Z,9.70
2023-03-25T00:02:48.551Z,9.60
2023-03-25T00:05:17.119Z,9.60
2023-03-25T00:07:45.961Z,9.60
2023-03-25T00:10:14.197Z,9.50
2023-03-25T00:12:42.914Z,9.50
2023-03-25T00:15:11.697Z,9.60
2023-03-25T00:17:38.938Z,9.60
2023-03-25T00:20:11.838Z,9.60
2023-03-25T00:22:44.787Z,9.60
2023-03-25T00:25:17.766Z,9.60
2023-03-25T00:27:46.990Z,9.60
2023-03-25T00:30:19.365Z,9.60
2023-03-25T00:32:50.117Z,9.60
2023-03-25T00:35:19.788Z,9.50
2023-03-25T00:37:52.463Z,9.50
2023-03-25T00:40:19.821Z,9.60
2023-03-25T00:42:50.624Z,9.60
2023-03-25T00:45:17.649Z,9.60
2023-03-25T00:47:44.684Z,9.60
2023-03-25T00:50:11.981Z,9.60
2023-03-25T00:52:39.068Z,9.60
2023-03-25T00:55:07.775Z,9.50
2023-03-25T00:57:35.045Z,9.50
2023-03-25T01:00:02.287Z,9.60
2023-03-25T01:02:29.240Z,9.60
2023-03-25T01:04:57.719Z,9.60
2023-03-25T01:07:24.694Z,9.70
2023-03-25T01:09:51.676Z,9.60
2023-03-25T01:12:20.726Z,9.70
2023-03-25T01:14:48.284Z,9.70
2023-03-25T01:17:15.472Z,9.70
2023-03-25T01:19:42.430Z,9.70
2023-03-25T01:22:09.396Z,9.60
2023-03-25T01:24:36.438Z,9.60
2023-03-25T01:27:03.539Z,9.60
2023-03-25T01:29:30.808Z,9.70
2023-03-25T01:31:58.815Z,9.60
2023-03-25T01:34:26.178Z,9.70
2023-03-25T01:36:55.605Z,9.60
2023-03-25T01:39:22.846Z,9.70
2023-03-25T01:41:51.508Z,9.60
2023-03-25T01:44:24.391Z,9.60
2023-03-25T01:46:56.372Z,9.60
2023-03-25T01:49:31.367Z,9.60
2023-03-25T01:52:03.280Z,9.50
2023-03-25T01:54:31.022Z,9.50
2023-03-25T01:56:58.353Z,9.50
2023-03-25T01:59:28.549Z,9.50
2023-03-25T02:01:58.543Z,9.50
2023-03-25T02:04:35.010Z,9.60
2023-03-25T02:07:02.607Z,9.50
2023-03-25T02:09:30.787Z,9.60
2023-03-25T02:11:57.757Z,9.60
2023-03-25T02:14:30.021Z,9.60
2023-03-25T02:17:09.378Z,9.70
2023-03-25T02:19:48.450Z,9.60
2023-03-25T02:23:00.133Z,9.60
2023-03-25T02:25:46.167Z,9.70
2023-03-25T02:28:13.216Z,9.70
2023-03-25T02:30:55.788Z,9.70
2023-03-25T02:33:48.794Z,9.70
2023-03-25T02:36:48.890Z,9.70
2023-03-25T02:39:22.358Z,9.70
2023-03-25T02:42:01.420Z,9.70
2023-03-25T02:44:39.627Z,9.70
2023-03-25T02:47:12.856Z,9.70
2023-03-25T02:49:51.216Z,9.70
2023-03-25T02:52:25.049Z,9.70
2023-03-25T02:54:58.161Z,9.70
2023-03-25T02:57:31.069Z,9.70
2023-03-25T02:59:59.858Z,9.60
2023-03-25T03:02:29.552Z,9.60
2023-03-25T03:04:57.278Z,9.60
2023-03-25T03:07:36.521Z,9.60
2023-03-25T03:10:21.274Z,9.60
2023-03-25T03:13:18.760Z,9.60
2023-03-25T03:15:48.583Z,9.60
2023-03-25T03:18:46.306Z,9.60
2023-03-25T03:21:30.192Z,9.70
2023-03-25T03:24:28.224Z,9.70
2023-03-25T03:27:04.478Z,9.70
2023-03-25T03:29:39.630Z,9.70
2023-03-25T03:32:15.739Z,9.70
2023-03-25T03:34:46.493Z,9.70
2023-03-25T03:37:18.698Z,9.70
2023-03-25T03:39:48.681Z,9.70
2023-03-25T03:43:03.405Z,9.70
2023-03-25T03:45:42.909Z,9.70
2023-03-25T03:48:17.246Z,9.60
2023-03-25T03:50:50.620Z,9.60
2023-03-25T03:53:33.401Z,9.50
2023-03-25T03:56:13.821Z,9.50
2023-03-25T03:58:43.226Z,9.50
2023-03-25T04:01:16.031Z,9.50
2023-03-25T04:04:02.823Z,9.40
2023-03-25T04:06:56.935Z,9.40
2023-03-25T04:09:55.287Z,9.40
2023-03-25T04:12:34.833Z,9.50
2023-03-25T04:15:03.770Z,9.50
2023-03-25T04:17:33.072Z,9.50
2023-03-25T04:20:01.764Z,9.50
2023-03-25T04:22:28.780Z,9.50
2023-03-25T04:24:56.349Z,9.40
2023-03-25T04:27:24.308Z,9.50
2023-03-25T04:29:52.224Z,9.50
2023-03-25T04:32:19.472Z,9.50
2023-03-25T04:34:47.096Z,9.50
2023-03-25T04:37:14.597Z,9.50
2023-03-25T04:39:41.797Z,9.50
2023-03-25T04:42:13.894Z,9.40
2023-03-25T04:44:40.987Z,9.40
2023-03-25T04:47:12.141Z,9.40
2023-03-25T04:49:39.110Z,9.50
2023-03-25T04:52:06.664Z,9.40
2023-03-25T04:54:33.613Z,9.40
2023-03-25T04:57:01.672Z,9.50
2023-03-25T04:59:29.712Z,9.50
2023-03-25T05:01:57.237Z,9.50
2023-03-25T05:04:24.877Z,9.50
2023-03-25T05:06:52.048Z,9.50
2023-03-25T05:09:24.121Z,9.40
2023-03-25T05:11:52.987Z,9.40
2023-03-25T05:14:21.569Z,9.40
2023-03-25T05:16:48.903Z,9.50
2023-03-25T05:19:19.068Z,9.50
2023-03-25T05:21:46.639Z,9.50
2023-03-25T05:24:14.110Z,9.50
2023-03-25T05:26:42.582Z,9.50
2023-03-25T05:29:15.708Z,9.50
2023-03-25T05:31:48.634Z,9.50
2023-03-25T05:34:17.337Z,9.50
2023-03-25T05:36:44.911Z,9.50
2023-03-25T05:39:12.235Z,9.50
2023-03-25T05:41:39.344Z,9.50
2023-03-25T05:44:08.603Z,9.50
2023-03-25T05:46:36.136Z,9.50
2023-03-25T05:49:03.127Z,9.50
2023-03-25T05:51:34.153Z,9.50
2023-03-25T05:54:01.909Z,9.60
2023-03-25T05:56:29.902Z,9.60
2023-03-25T05:58:57.842Z,9.60
2023-03-25T06:01:33.091Z,9.60
2023-03-25T06:04:03.016Z,9.70
2023-03-25T06:06:32.354Z,9.70
2023-03-25T06:08:59.632Z,9.70
2023-03-25T06:11:26.625Z,9.70
2023-03-25T06:13:53.718Z,9.70
2023-03-25T06:16:27.641Z,9.70
2023-03-25T06:19:00.191Z,9.70
2023-03-25T06:21:30.427Z,9.80
2023-03-25T06:24:00.374Z,9.80
2023-03-25T06:26:28.139Z,9.80
2023-03-25T06:28:55.408Z,9.80
2023-03-25T06:31:28.283Z,9.80
2023-03-25T06:33:56.448Z,9.80
2023-03-25T06:36:25.862Z,9.90
2023-03-25T06:38:53.708Z,9.90
2023-03-25T06:41:21.607Z,10.00
2023-03-25T06:43:49.425Z,10.00
2023-03-25T06:46:17.133Z,10.00
2023-03-25T06:48:44.310Z,10.10
2023-03-25T06:51:11.508Z,10.10
2023-03-25T06:53:38.581Z,10.10
2023-03-25T06:56:06.200Z,10.10
2023-03-25T06:58:35.412Z,10.10
2023-03-25T07:01:07.671Z,10.10
2023-03-25T07:03:37.655Z,10.10
2023-03-25T07:06:06.509Z,10.10
2023-03-25T07:08:33.953Z,10.10
2023-03-25T07:11:07.995Z,10.20
2023-03-25T07:13:35.255Z,10.20
2023-03-25T07:16:02.288Z,10.30
2023-03-25T07:18:30.417Z,10.40
2023-03-25T07:20:57.822Z,10.40
2023-03-25T07:23:25.276Z,10.40
2023-03-25T07:25:52.878Z,10.40
2023-03-25T07:28:20.798Z,10.40
2023-03-25T07:30:47.765Z,10.40
2023-03-25T07:33:14.742Z,10.40
2023-03-25T07:35:41.791Z,10.30
2023-03-25T07:38:10.085Z,10.30
2023-03-25T07:40:37.492Z,10.30
2023-03-25T07:43:04.958Z,10.40
2023-03-25T07:45:31.953Z,10.40
2023-03-25T07:48:14.953Z,10.40
2023-03-25T07:50:43.256Z,10.50
2023-03-25T07:53:10.938Z,10.50
2023-03-25T07:55:38.350Z,10.50
2023-03-25T07:58:05.368Z,10.60
2023-03-25T08:00:32.557Z,10.60
2023-03-25T08:02:59.567Z,10.60
2023-03-25T08:05:28.040Z,10.60
2023-03-25T08:07:55.696Z,10.60
2023-03-25T08:10:23.680Z,10.60
2023-03-25T08:12:53.215Z,10.60
2023-03-25T08:15:21.058Z,10.70
2023-03-25T08:17:48.109Z,10.70
2023-03-25T08:20:15.805Z,10.70
2023-03-25T08:22:45.353Z,10.80
2023-03-25T08:25:13.312Z,10.90
2023-03-25T08:27:40.790Z,10.90
2023-03-25T08:30:10.761Z,11.00
2023-03-25T08:32:38.598Z,11.00
2023-03-25T08:35:06.726Z,11.00
2023-03-25T08:37:38.035Z,11.00
2023-03-25T08:40:09.953Z,11.00
2023-03-25T08:42:38.045Z,11.10
2023-03-25T08:45:05.964Z,11.10
2023-03-25T08:47:33.130Z,11.10
2023-03-25T08:50:01.338Z,11.20
2023-03-25T08:52:28.356Z,11.20
2023-03-25T08:54:55.630Z,11.20
2023-03-25T08:57:23.606Z,11.30
2023-03-25T08:59:50.615Z,11.30
2023-03-25T09:02:17.670Z,11.30
2023-03-25T09:04:44.727Z,11.30
2023-03-25T09:07:12.589Z,11.40
2023-03-25T09:09:41.044Z,11.30
2023-03-25T09:12:08.347Z,11.30
2023-03-25T09:14:35.465Z,11.40
2023-03-25T09:17:02.547Z,11.50
2023-03-25T09:19:30.524Z,11.60
2023-03-25T09:21:57.461Z,11.60
2023-03-25T09:24:25.035Z,11.60
2023-03-25T09:26:52.054Z,11.70
2023-03-25T09:29:19.990Z,11.80
2023-03-25T09:31:46.980Z,11.80
2023-03-25T09:34:16.027Z,11.90
2023-03-25T09:36:43.218Z,12.00
2023-03-25T09:39:10.466Z,12.00
2023-03-25T09:42:12.881Z,12.10
2023-03-25T09:45:11.544Z,12.40
2023-03-25T09:47:41.767Z,13.00
2023-03-25T09:50:14.646Z,13.40
2023-03-25T09:53:07.994Z,13.40
2023-03-25T09:55:41.300Z,13.90
2023-03-25T09:58:26.450Z,14.40
2023-03-25T10:01:01.145Z,14.40
2023-03-25T10:03:47.511Z,14.20
2023-03-25T10:06:19.896Z,13.80
2023-03-25T10:09:05.505Z,13.40
2023-03-25T10:11:58.077Z,13.10
2023-03-25T10:14:32.031Z,12.90
2023-03-25T10:17:11.137Z,12.80
2023-03-25T10:20:05.016Z,12.60
2023-03-25T10:23:05.118Z,12.50
2023-03-25T10:25:38.366Z,12.30
2023-03-25T10:28:08.911Z,12.20
2023-03-25T10:30:41.747Z,12.20
2023-03-25T10:33:32.941Z,12.10
2023-03-25T10:36:02.126Z,12.20
2023-03-25T10:38:31.841Z,12.30
2023-03-25T10:41:13.936Z,12.50
2023-03-25T10:43:42.606Z,12.60
2023-03-25T10:46:34.138Z,12.80
2023-03-25T10:49:01.128Z,13.70
2023-03-25T10:51:34.319Z,14.60
2023-03-25T10:54:01.817Z,14.80
2023-03-25T10:56:32.840Z,14.60
2023-03-25T10:59:04.393Z,14.20
2023-03-25T11:01:39.945Z,13.80
2023-03-25T11:04:11.367Z,13.60
2023-03-25T11:06:40.442Z,13.20
2023-03-25T11:09:18.189Z,13.00
2023-03-25T11:11:47.570Z,13.00
2023-03-25T11:14:15.116Z,12.90
2023-03-25T11:16:53.770Z,12.70
2023-03-25T11:19:26.893Z,12.80
2023-03-25T11:21:58.277Z,13.40
2023-03-25T11:24:34.102Z,13.70
2023-03-25T11:27:02.110Z,14.10
2023-03-25T11:29:30.558Z,14.30
2023-03-25T11:32:07.194Z,14.30
2023-03-25T11:34:42.274Z,14.10
2023-03-25T11:37:25.116Z,14.40
2023-03-25T11:39:55.800Z,14.80
2023-03-25T11:42:52.422Z,14.70
2023-03-25T11:45:37.777Z,14.70
2023-03-25T11:48:16.872Z,14.70
2023-03-25T11:50:56.254Z,14.80
2023-03-25T11:53:27.309Z,14.80
2023-03-25T11:56:11.705Z,14.50
2023-03-25T11:58:40.797Z,14.40
2023-03-25T12:01:36.937Z,14.20
2023-03-25T12:04:24.243Z,14.10
2023-03-25T12:06:57.934Z,14.00
2023-03-25T12:09:28.443Z,14.00
2023-03-25T12:12:16.981Z,14.10
2023-03-25T12:14:58.931Z,14.40
2023-03-25T12:17:29.023Z,14.70
2023-03-25T12:20:16.607Z,14.90
2023-03-25T12:22:58.987Z,15.20
2023-03-25T12:25:37.370Z,15.30
2023-03-25T12:28:19.352Z,15.30
2023-03-25T12:31:21.571Z,15.50
2023-03-25T12:34:13.079Z,15.60
2023-03-25T12:36:48.892Z,15.50
2023-03-25T12:39:42.098Z,15.30
2023-03-25T12:42:22.127Z,15.20
2023-03-25T12:44:49.040Z,15.10
2023-03-25T12:47:39.706Z,15.30
2023-03-25T12:50:26.916Z,15.10
2023-03-25T12:53:19.741Z,14.90
2023-03-25T12:56:10.738Z,15.10
2023-03-25T12:58:47.312Z,15.30
2023-03-25T13:01:39.219Z,15.40
2023-03-25T13:04:22.906Z,15.10
2023-03-25T13:07:14.834Z,15.00
2023-03-25T13:10:00.897Z,15.10
2023-03-25T13:12:33.202Z,15.10
2023-03-25T13:15:06.952Z,14.90
2023-03-25T13:17:44.500Z,14.80
2023-03-25T13:20:12.439Z,14.90
2023-03-25T13:22:46.873Z,15.00
2023-03-25T13:25:53.264Z,15.00
2023-03-25T13:28:38.327Z,15.00
2023-03-25T13:31:09.186Z,14.90
2023-03-25T13:33:50.933Z,15.00
2023-03-25T13:36:37.835Z,15.00
2023-03-25T13:39:53.089Z,15.20
2023-03-25T13:43:01.718Z,15.20
2023-03-25T13:45:37.543Z,15.20
2023-03-25T13:48:13.417Z,15.20
2023-03-25T13:50:40.454Z,15.00
2023-03-25T13:53:37.732Z,14.90
2023-03-25T13:56:07.700Z,14.70
2023-03-25T13:59:13.273Z,14.20
2023-03-25T14:02:17.789Z,14.30
2023-03-25T14:05:06.510Z,14.50
2023-03-25T14:07:45.674Z,14.70
2023-03-25T14:10:28.396Z,14.80
2023-03-25T14:13:33.801Z,14.90
2023-03-25T14:16:04.278Z,15.00
2023-03-25T14:18:32.345Z,14.80
2023-03-25T14:21:40.969Z,14.60
2023-03-25T14:24:34.950Z,14.20
2023-03-25T14:27:04.840Z,13.90
2023-03-25T14:29:40.088Z,13.70
2023-03-25T14:32:10.016Z,13.50
2023-03-25T14:34:39.352Z,13.60
2023-03-25T14:37:07.705Z,13.80
2023-03-25T14:39:34.625Z,14.00
2023-03-25T14:42:08.678Z,14.20
2023-03-25T14:44:42.290Z,14.40
2023-03-25T14:47:20.998Z,14.50
2023-03-25T14:50:01.683Z,14.60
2023-03-25T14:52:47.968Z,14.70
2023-03-25T14:55:32.851Z,14.60
2023-03-25T14:58:05.185Z,14.30
2023-03-25T15:00:41.107Z,14.00
2023-03-25T15:03:17.971Z,13.80
2023-03-25T15:05:53.408Z,13.80
2023-03-25T15:08:36.996Z,13.90
2023-03-25T15:11:12.785Z,14.00
2023-03-25T15:13:42.625Z,14.10
2023-03-25T15:16:37.036Z,14.20
2023-03-25T15:19:08.733Z,14.20
2023-03-25T15:21:58.835Z,14.10
2023-03-25T15:24:32.186Z,13.90
2023-03-25T15:27:09.663Z,13.90
2023-03-25T15:29:55.118Z,14.00
2023-03-25T15:33:05.240Z,14.00
2023-03-25T15:35:50.954Z,13.70
2023-03-25T15:38:20.887Z,13.70
2023-03-25T15:41:00.012Z,13.80
2023-03-25T15:43:30.721Z,13.80
2023-03-25T15:46:47.214Z,13.70
2023-03-25T15:49:23.137Z,13.60
2023-03-25T15:52:20.783Z,13.60
2023-03-25T15:54:59.654Z,13.50
2023-03-25T15:57:36.765Z,13.40
2023-03-25T16:00:47.307Z,13.30
2023-03-25T16:03:19.840Z,13.30
2023-03-25T16:06:00.650Z,13.20
2023-03-25T16:08:32.852Z,13.10
2023-03-25T16:11:21.870Z,13.10
2023-03-25T16:14:21.286Z,13.10
2023-03-25T16:16:54.452Z,13.10
2023-03-25T16:19:28.439Z,13.00
2023-03-25T16:21:55.979Z,13.00
2023-03-25T16:24:29.836Z,12.90
2023-03-25T16:26:57.062Z,12.80
2023-03-25T16:29:25.865Z,12.70
2023-03-25T16:32:02.240Z,12.60
2023-03-25T16:34:40.566Z,12.50
2023-03-25T16:37:08.256Z,12.50
2023-03-25T16:39:37.027Z,12.30
2023-03-25T16:42:35.579Z,12.20
2023-03-25T16:45:03.636Z,12.10
2023-03-25T16:47:34.286Z,12.00
2023-03-25T16:50:02.937Z,12.00
2023-03-25T16:52:34.195Z,11.90
2023-03-25T16:55:01.187Z,11.80
2023-03-25T16:57:32.641Z,11.80
2023-03-25T17:00:06.308Z,11.70
2023-03-25T17:02:43.676Z,11.70
2023-03-25T17:05:26.529Z,11.70
2023-03-25T17:08:11.942Z,11.70
2023-03-25T17:10:50.840Z,11.60
2023-03-25T17:13:26.049Z,11.50
2023-03-25T17:15:53.220Z,11.50
2023-03-25T17:18:23.669Z,11.50
2023-03-25T17:20:56.390Z,11.50
2023-03-25T17:23:35.716Z,11.40
2023-03-25T17:26:08.159Z,11.50
2023-03-25T17:28:43.236Z,11.50
2023-03-25T17:31:39.141Z,11.60
2023-03-25T17:34:12.061Z,11.50
2023-03-25T17:36:42.548Z,11.40
2023-03-25T17:39:25.390Z,11.40
2023-03-25T17:42:00.610Z,11.40
2023-03-25T17:44:39.785Z,11.40
2023-03-25T17:47:08.469Z,11.30
2023-03-25T17:49:35.700Z,11.30
2023-03-25T17:52:03.197Z,11.20
2023-03-25T17:54:30.767Z,11.20
2023-03-25T17:56:57.815Z,11.20
2023-03-25T17:59:26.950Z,11.10
2023-03-25T18:01:54.401Z,11.10
2023-03-25T18:04:22.391Z,11.00
2023-03-25T18:06:49.929Z,11.00
2023-03-25T18:09:21.224Z,10.90
2023-03-25T18:11:53.086Z,10.90
2023-03-25T18:14:21.714Z,10.80
2023-03-25T18:16:48.938Z,10.80
2023-03-25T18:19:21.854Z,10.80
2023-03-25T18:21:49.176Z,10.80
2023-03-25T18:24:16.190Z,10.70
2023-03-25T18:26:44.437Z,10.70
2023-03-25T18:29:21.756Z,10.70
2023-03-25T18:31:49.253Z,10.70
2023-03-25T18:34:16.818Z,10.70
2023-03-25T18:36:44.955Z,10.70
2023-03-25T18:39:17.354Z,10.70
2023-03-25T18:41:45.055Z,10.60
2023-03-25T18:44:14.250Z,10.70
2023-03-25T18:46:42.688Z,10.70
2023-03-25T18:49:16.236Z,10.70
2023-03-25T18:51:43.775Z,10.70
2023-03-25T18:54:11.377Z,10.70
2023-03-25T18:56:41.654Z,10.70
2023-03-25T18:59:10.983Z,10.70
2023-03-25T19:01:38.135Z,10.80
2023-03-25T19:04:05.190Z,10.80
2023-03-25T19:06:32.272Z,10.80
2023-03-25T19:08:59.268Z,10.70
2023-03-25T19:11:26.633Z,10.80
2023-03-25T19:13:53.865Z,10.80
2023-03-25T19:16:22.071Z,10.70
2023-03-25T19:18:49.140Z,10.70
2023-03-25T19:21:20.671Z,10.60
2023-03-25T19:23:47.782Z,10.60
2023-03-25T19:26:15.312Z,10.60
2023-03-25T19:28:42.550Z,10.50
2023-03-25T19:31:13.571Z,10.50
2023-03-25T19:33:40.564Z,10.50
2023-03-25T19:36:08.289Z,10.50
2023-03-25T19:38:35.268Z,10.50
2023-03-25T19:41:08.351Z,10.50
2023-03-25T19:43:35.942Z,10.50
2023-03-25T19:46:03.888Z,10.40
2023-03-25T19:48:31.905Z,10.40
2023-03-25T19:50:59.041Z,10.40
2023-03-25T19:53:27.995Z,10.40
2023-03-25T19:55:55.900Z,10.40
2023-03-25T19:58:24.736Z,10.40
2023-03-25T20:00:51.826Z,10.30
2023-03-25T20:03:22.609Z,10.30
2023-03-25T20:05:56.259Z,10.40
2023-03-25T20:08:23.504Z,10.40
2023-03-25T20:10:51.595Z,10.30
2023-03-25T20:13:18.594Z,10.30
2023-03-25T20:15:46.026Z,10.30
2023-03-25T20:18:13.049Z,10.30
2023-03-25T20:20:40.630Z,10.30
2023-03-25T20:23:08.424Z,10.30
2023-03-25T20:25:35.495Z,10.30
2023-03-25T20:28:02.448Z,10.30
2023-03-25T20:30:29.569Z,10.30
2023-03-25T20:32:58.564Z,10.30
2023-03-25T20:35:28.063Z,10.40
2023-03-25T20:37:55.041Z,10.40
2023-03-25T20:40:30.660Z,10.40
2023-03-25T20:43:05.135Z,10.40
2023-03-25T20:45:33.118Z,10.40
2023-03-25T20:48:00.375Z,10.50
2023-03-25T20:50:27.762Z,10.50
2023-03-25T20:52:55.863Z,10.50
2023-03-25T20:55:23.422Z,10.50
2023-03-25T20:57:50.600Z,10.50
2023-03-25T21:00:18.294Z,10.50
2023-03-25T21:02:46.219Z,10.50
2023-03-25T21:05:13.344Z,10.50
2023-03-25T21:07:41.329Z,10.40
2023-03-25T21:10:09.032Z,10.50
2023-03-25T21:12:43.619Z,10.50
2023-03-25T21:15:13.251Z,10.50
2023-03-25T21:17:40.962Z,10.50
2023-03-25T21:20:09.244Z,10.50
2023-03-25T21:22:43.237Z,10.40
2023-03-25T21:25:11.619Z,10.40
2023-03-25T21:27:39.798Z,10.30
2023-03-25T21:30:09.810Z,10.30
2023-03-25T21:32:38.050Z,10.20
2023-03-25T21:35:05.355Z,10.20
2023-03-25T21:37:37.833Z,10.10
2023-03-25T21:40:08.375Z,10.10
2023-03-25T21:42:38.509Z,10.10
2023-03-25T21:45:07.983Z,10.00
2023-03-25T21:47:36.546Z,10.00
2023-03-25T21:50:09.929Z,9.90
2023-03-25T21:52:43.521Z,9.90
2023-03-25T21:55:11.399Z,9.80
2023-03-25T21:57:44.450Z,9.80
2023-03-25T22:00:17.346Z,9.80
2023-03-25T22:02:47.653Z,9.70
2023-03-25T22:05:19.245Z,9.70
2023-03-25T22:07:49.423Z,9.60
2023-03-25T22:10:18.374Z,9.60
2023-03-25T22:12:48.369Z,9.60
2023-03-25T22:15:15.686Z,9.60
2023-03-25T22:17:42.826Z,9.50
2023-03-25T22:20:10.642Z,9.50
2023-03-25T22:22:37.891Z,9.50
2023-03-25T22:25:05.800Z,9.40
2023-03-25T22:27:32.802Z,9.40
2023-03-25T22:29:59.862Z,9.40
2023-03-25T22:32:27.648Z,9.40
2023-03-25T22:34:54.714Z,9.30
2023-03-25T22:37:21.969Z,9.30
2023-03-25T22:39:48.991Z,9.30
2023-03-25T22:42:15.952Z,9.30
2023-03-25T22:44:44.844Z,9.30
2023-03-25T22:47:12.468Z,9.30
2023-03-25T22:49:39.438Z,9.30
2023-03-25T22:52:06.664Z,9.30
2023-03-25T22:54:33.737Z,9.30
2023-03-25T22:57:01.147Z,9.30
2023-03-25T22:59:28.240Z,9.30
2023-03-25T23:01:56.144Z,9.30
2023-03-25T23:04:23.079Z,9.30
2023-03-25T23:07:04.670Z,9.30
2023-03-25T23:09:41.486Z,9.30
2023-03-25T23:12:13.478Z,9.30
2023-03-25T23:14:42.675Z,9.30
2023-03-25T23:17:10.683Z,9.30
2023-03-25T23:19:37.682Z,9.30
2023-03-25T23:22:05.916Z,9.30
2023-03-25T23:24:38.122Z,9.30
2023-03-25T23:27:08.596Z,9.30
2023-03-25T23:29:36.416Z,9.30
2023-03-25T23:32:05.981Z,9.30
2023-03-25T23:34:34.320Z,9.30
2023-03-25T23:37:04.556Z,9.40
2023-03-25T23:39:31.802Z,9.30
2023-03-25T23:41:58.825Z,9.40
2023-03-25T23:44:25.871Z,9.40
2023-03-25T23:46:52.915Z,9.40
2023-03-25T23:49:20.394Z,9.40
2023-03-25T23:51:47.640Z,9.40
2023-03-25T23:54:16.074Z,9.40
2023-03-25T23:56:43.443Z,9.40
2023-03-25T23:59:12.113Z,9.50
